Time;durP1;ratioP1;P1;durP2;ratioP2;P2;SDS_P1;SDS_P2;PMS_P1;PMS_P2;Temp;Humidity;BMP_temperature;BMP_pressure;BME280_temperature;BME280_humidity;BME280_pressure;Samples;Min_cycle;Max_cycle;Signal;HPM_P1;HPM_P2
2022/05/12 00:01:07;;;;;;;11.37;7.67;;;;;;;20.04;42.38;95566.41;4951090;29;20451;-72
2022/05/12 00:03:35;;;;;;;13.23;8.20;;;;;;;19.76;42.99;95532.16;4950953;29;20444;-69
2022/05/12 00:06:03;;;;;;;11.77;8.87;;;;;;;19.01;45.58;95563.56;4950651;29;20997;-72
2022/05/12 00:08:29;;;;;;;11.40;8.00;;;;;;;19.41;44.33;95556.75;4950308;29;20447;-70
2022/05/12 00:10:56;;;;;;;11.87;8.00;;;;;;;20.05;42.59;95559.97;4950939;29;20431;-70
2022/05/12 00:13:23;;;;;;;12.73;7.90;;;;;;;19.50;44.36;95555.00;4950975;29;20802;-69
2022/05/12 00:15:52;;;;;;;13.57;8.93;;;;;;;19.60;44.06;95554.78;4950533;29;20479;-70
2022/05/12 00:18:20;;;;;;;14.97;8.10;;;;;;;19.90;43.62;95551.53;4949027;29;20900;-71
2022/05/12 00:20:47;;;;;;;12.13;8.33;;;;;;;19.93;43.58;95548.28;4950390;29;20978;-69
2022/05/12 00:23:21;;;;;;;10.07;8.07;;;;;;;19.66;43.91;95553.63;4951329;29;20439;-68
2022/05/12 00:25:49;;;;;;;14.77;8.23;;;;;;;20.04;43.35;95554.97;4943843;29;20451;-69
2022/05/12 00:28:18;;;;;;;11.20;8.53;;;;;;;20.13;43.02;95553.16;4951253;28;20800;-69
2022/05/12 00:30:47;;;;;;;13.80;8.07;;;;;;;20.09;42.80;95546.84;4949765;29;20455;-69
2022/05/12 00:33:15;;;;;;;12.37;8.50;;;;;;;20.19;42.26;95549.34;4950975;29;20950;-69
2022/05/12 00:35:44;;;;;;;9.67;7.70;;;;;;;20.17;42.46;95543.53;4949935;29;20432;-72
2022/05/12 00:38:12;;;;;;;14.37;8.23;;;;;;;20.13;42.45;95553.97;4950597;29;20521;-67
2022/05/12 00:40:41;;;;;;;9.73;8.17;;;;;;;19.87;42.92;95549.47;4948984;29;21026;-67
2022/05/12 00:43:37;;;;;;;12.43;7.73;;;;;;;20.21;42.51;95547.19;4953832;29;20474;-69
2022/05/12 00:46:13;;;;;;;11.50;7.80;;;;;;;19.85;43.05;95546.34;4951654;29;20446;-68
2022/05/12 00:48:41;;;;;;;11.63;8.13;;;;;;;20.17;42.59;95554.19;4950613;29;20474;-70
2022/05/12 00:51:14;;;;;;;12.63;7.57;;;;;;;19.96;42.83;95563.66;4947926;29;20454;-68
2022/05/12 00:53:41;;;;;;;9.30;7.83;;;;;;;19.99;42.56;95552.41;4950520;29;20455;-71
2022/05/12 00:56:14;;;;;;;9.37;8.03;;;;;;;19.87;42.83;95557.47;4962092;28;20528;-73
2022/05/12 00:58:41;;;;;;;12.37;7.83;;;;;;;19.72;43.21;95557.75;4953872;29;20474;-70
2022/05/12 01:01:10;;;;;;;11.07;8.03;;;;;;;19.94;42.62;95560.50;4953730;29;20804;-73
2022/05/12 01:03:42;;;;;;;10.40;7.60;;;;;;;19.91;42.33;95561.09;4946036;29;20455;-70
2022/05/12 01:06:10;;;;;;;9.30;7.73;;;;;;;19.48;43.34;95565.94;4953610;28;20447;-73
2022/05/12 01:08:39;;;;;;;14.47;8.17;;;;;;;19.72;42.67;95547.13;4953983;29;20539;-70
2022/05/12 01:11:17;;;;;;;10.93;8.13;;;;;;;19.98;42.11;95567.56;4953152;29;20451;-73
2022/05/12 01:13:50;;;;;;;10.70;8.20;;;;;;;19.87;42.32;95574.19;4946109;29;20550;-71
2022/05/12 01:16:42;;;;;;;10.23;8.10;;;;;;;19.91;42.23;95567.19;4950659;29;20542;-72
2022/05/12 01:19:14;;;;;;;13.07;9.03;;;;;;;19.86;42.07;95564.66;4953501;29;20526;-70
2022/05/12 01:21:41;;;;;;;15.27;9.17;;;;;;;19.28;43.03;95562.81;4952393;29;20502;-69
2022/05/12 01:24:08;;;;;;;12.43;8.43;;;;;;;19.45;42.56;95563.84;4953774;29;20508;-72
2022/05/12 01:26:35;;;;;;;13.77;8.83;;;;;;;19.55;42.59;95560.22;4952917;29;20494;-71
2022/05/12 01:29:03;;;;;;;13.33;8.60;;;;;;;19.08;43.18;95569.28;4957004;29;20451;-69
2022/05/12 01:31:32;;;;;;;14.50;8.77;;;;;;;19.53;42.25;95571.16;4958653;29;20451;-71
2022/05/12 01:34:03;;;;;;;10.27;8.10;;;;;;;19.52;42.43;95574.09;4955244;29;20596;-69
2022/05/12 01:36:31;;;;;;;11.10;8.40;;;;;;;19.34;42.65;95577.63;4953045;29;20443;-70
2022/05/12 01:38:58;;;;;;;12.20;9.73;;;;;;;19.37;42.52;95569.06;4953152;29;20506;-71
2022/05/12 01:41:26;;;;;;;12.43;8.33;;;;;;;18.08;45.56;95582.19;4952752;29;20467;-69
2022/05/12 01:43:52;;;;;;;8.47;7.47;;;;;;;18.51;44.69;95580.28;4953691;29;20506;-68
2022/05/12 01:46:20;;;;;;;9.47;7.27;;;;;;;19.05;43.53;95581.28;4952895;29;20454;-70
2022/05/12 01:48:47;;;;;;;12.60;7.60;;;;;;;19.07;43.13;95568.50;4952643;29;20821;-69
2022/05/12 01:51:13;;;;;;;9.27;7.63;;;;;;;19.05;43.66;95581.28;4952396;29;20440;-71
2022/05/12 01:53:40;;;;;;;12.23;7.37;;;;;;;19.05;43.64;95580.47;4952972;29;20510;-71
2022/05/12 01:56:08;;;;;;;11.73;7.60;;;;;;;19.15;43.49;95581.13;4952770;29;20443;-71
2022/05/12 01:58:35;;;;;;;12.33;7.53;;;;;;;18.77;43.67;95579.63;4952841;29;20495;-69
2022/05/12 02:01:02;;;;;;;10.07;7.23;;;;;;;18.75;43.88;95587.09;4952703;29;20448;-72
2022/05/12 02:03:30;;;;;;;10.70;7.47;;;;;;;18.80;43.61;95587.00;4960115;28;20814;-68
2022/05/12 02:05:56;;;;;;;13.33;7.83;;;;;;;19.01;43.72;95585.59;4952198;28;20884;-67
2022/05/12 02:08:23;;;;;;;9.30;7.53;;;;;;;18.97;43.31;95579.31;4951373;28;20448;-67
2022/05/12 02:10:51;;;;;;;10.67;7.57;;;;;;;18.80;43.83;95589.66;4952164;29;20973;-70
2022/05/12 02:13:20;;;;;;;11.10;7.07;;;;;;;18.99;43.45;95590.41;4953009;29;20515;-70
2022/05/12 02:15:48;;;;;;;11.13;6.90;;;;;;;19.09;43.25;95594.75;4952442;29;20478;-70
2022/05/12 02:18:19;;;;;;;7.67;6.57;;;;;;;19.27;42.88;95593.16;4952591;29;20637;-69
2022/05/12 02:20:46;;;;;;;11.03;6.27;;;;;;;18.97;42.71;95595.22;4951381;29;20487;-71
2022/05/12 02:23:14;;;;;;;7.60;6.30;;;;;;;19.10;42.71;95578.53;4952728;29;20563;-72
2022/05/12 02:25:41;;;;;;;7.27;5.87;;;;;;;18.71;43.25;95602.00;4952007;29;20530;-69
2022/05/12 02:28:08;;;;;;;7.57;5.93;;;;;;;18.84;42.43;95590.66;4952452;29;20450;-71
2022/05/12 02:30:35;;;;;;;12.20;6.10;;;;;;;18.75;43.26;95599.56;4951905;29;20444;-74
2022/05/12 02:33:02;;;;;;;5.97;5.37;;;;;;;18.86;42.64;95604.44;4953360;29;20444;-69
2022/05/12 02:35:30;;;;;;;6.20;5.60;;;;;;;18.86;42.95;95601.00;4952511;29;20978;-71
2022/05/12 02:37:58;;;;;;;6.67;5.50;;;;;;;19.08;42.51;95606.47;4952304;29;20443;-74
2022/05/12 02:40:28;;;;;;;5.57;5.07;;;;;;;19.26;41.82;95596.88;4950969;29;20624;-69
2022/05/12 02:42:57;;;;;;;8.37;6.13;;;;;;;19.09;42.11;95592.09;4952360;29;20538;-71
2022/05/12 02:45:26;;;;;;;11.47;6.27;;;;;;;18.75;43.05;95605.69;4952447;29;20454;-71
2022/05/12 02:47:53;;;;;;;8.87;5.90;;;;;;;18.85;43.09;95602.84;4952975;29;20475;-74
2022/05/12 02:50:21;;;;;;;8.87;6.90;;;;;;;18.76;43.09;95601.94;4952345;29;20875;-72
2022/05/12 02:52:47;;;;;;;10.07;7.50;;;;;;;18.83;42.70;95605.00;4952785;29;20480;-71
2022/05/12 02:55:15;;;;;;;13.67;8.53;;;;;;;18.63;43.07;95605.31;4951626;29;20479;-71
2022/05/12 02:57:42;;;;;;;10.70;9.43;;;;;;;18.67;42.98;95606.31;4952412;29;20439;-71
2022/05/12 03:00:16;;;;;;;12.40;8.93;;;;;;;18.77;43.16;95605.38;4951486;29;20491;-71
2022/05/12 03:02:43;;;;;;;10.87;9.13;;;;;;;18.67;43.49;95594.91;4951452;29;20491;-74
2022/05/12 03:05:10;;;;;;;9.17;7.20;;;;;;;18.72;42.49;95598.28;4951650;29;20786;-68
2022/05/12 03:07:38;;;;;;;12.73;6.57;;;;;;;18.30;43.26;95606.31;4952204;29;20443;-73
2022/05/12 03:10:05;;;;;;;8.27;5.90;;;;;;;18.42;43.12;95609.34;4951513;29;20444;-70
2022/05/12 03:12:32;;;;;;;8.13;5.80;;;;;;;18.26;42.96;95596.53;4951707;29;20832;-69
2022/05/12 03:15:00;;;;;;;6.80;5.70;;;;;;;18.29;43.61;95617.97;4951010;28;20482;-73
2022/05/12 03:17:27;;;;;;;6.90;5.63;;;;;;;18.43;42.91;95610.91;4951701;29;20439;-70
2022/05/12 03:19:55;;;;;;;5.93;5.17;;;;;;;18.48;43.09;95600.25;4950300;28;20586;-72
2022/05/12 03:22:22;;;;;;;10.40;6.57;;;;;;;18.57;43.17;95617.09;4951249;29;21043;-73
2022/05/12 03:24:49;;;;;;;10.57;6.70;;;;;;;18.56;42.96;95620.81;4952487;29;20538;-70
2022/05/12 03:27:16;;;;;;;12.37;7.77;;;;;;;18.36;43.55;95630.88;4951957;29;21054;-70
2022/05/12 03:29:43;;;;;;;14.87;9.37;;;;;;;18.26;43.77;95634.47;4958366;29;20525;-68
2022/05/12 03:32:12;;;;;;;16.07;9.73;;;;;;;18.29;43.93;95630.44;4954825;29;20882;-71
2022/05/12 03:34:39;;;;;;;16.83;11.97;;;;;;;18.60;43.54;95632.44;4951241;29;21424;-67
2022/05/12 03:37:07;;;;;;;16.73;13.17;;;;;;;18.53;43.78;95642.63;4950739;29;20448;-70
2022/05/12 03:39:42;;;;;;;18.07;13.83;;;;;;;18.65;43.56;95650.94;4951354;29;20527;-70
2022/05/12 03:42:12;;;;;;;19.50;15.13;;;;;;;18.67;43.06;95638.16;4951336;29;20459;-70
2022/05/12 03:44:53;;;;;;;18.73;15.63;;;;;;;18.14;44.56;95647.34;4950612;29;20443;-69
2022/05/12 03:47:25;;;;;;;18.33;15.27;;;;;;;18.60;43.96;95645.72;4950821;29;20470;-70
2022/05/12 03:49:57;;;;;;;20.93;15.93;;;;;;;18.76;43.60;95652.38;4950653;29;20439;-72
2022/05/12 03:52:25;;;;;;;26.03;16.60;;;;;;;18.81;43.30;95654.19;4949416;29;20984;-69
2022/05/12 03:54:51;;;;;;;18.57;15.13;;;;;;;18.73;43.55;95655.63;4951181;29;20423;-69
2022/05/12 03:57:20;;;;;;;23.67;15.17;;;;;;;18.46;44.30;95652.81;4951202;29;20477;-70
2022/05/12 03:59:48;;;;;;;21.30;16.17;;;;;;;18.41;44.65;95655.50;4951042;29;20494;-68
2022/05/12 04:02:18;;;;;;;18.80;13.77;;;;;;;18.61;43.66;95657.88;4966238;28;20451;-70
2022/05/12 04:04:46;;;;;;;19.27;14.13;;;;;;;18.59;44.02;95662.72;4970669;28;20851;-70
2022/05/12 04:07:20;;;;;;;19.73;14.70;;;;;;;18.90;43.44;95658.53;4969773;28;20441;-69
2022/05/12 04:09:48;;;;;;;18.53;15.30;;;;;;;18.27;43.92;95665.22;4970324;28;20442;-72
2022/05/12 04:12:15;;;;;;;18.87;15.07;;;;;;;18.28;44.39;95672.13;4958703;28;20456;-71
2022/05/12 04:14:42;;;;;;;18.30;14.83;;;;;;;18.30;44.59;95659.38;4969845;28;20477;-70
2022/05/12 04:17:13;;;;;;;24.50;15.47;;;;;;;18.48;43.96;95666.59;4969724;28;20431;-70
2022/05/12 04:19:41;;;;;;;18.97;14.30;;;;;;;18.51;44.41;95666.00;4970380;28;20482;-69
2022/05/12 04:22:08;;;;;;;20.60;14.47;;;;;;;18.83;43.77;95667.97;4969358;28;20988;-69
2022/05/12 04:24:35;;;;;;;24.80;16.37;;;;;;;19.15;43.29;95671.44;4970172;28;20453;-70
2022/05/12 04:27:03;;;;;;;36.17;19.50;;;;;;;18.54;45.11;95669.97;4957298;28;20467;-70
2022/05/12 04:29:29;;;;;;;33.70;17.43;;;;;;;18.98;44.05;95663.19;4951063;29;20487;-69
2022/05/12 04:31:56;;;;;;;25.33;15.60;;;;;;;18.91;44.87;95670.75;4952345;28;20447;-72
2022/05/12 04:37:08;;;;;;;21.40;13.27;;;;;;;18.89;44.32;95674.75;4954543;29;20451;-69
2022/05/12 04:39:35;;;;;;;16.70;13.93;;;;;;;19.11;43.67;95664.31;4955315;29;20693;-69
2022/05/12 04:42:04;;;;;;;16.27;12.33;;;;;;;19.04;44.28;95675.34;4954294;29;20443;-72
2022/05/12 04:44:31;;;;;;;19.87;11.27;;;;;;;19.35;43.23;95677.53;4955045;29;20443;-69
2022/05/12 04:46:58;;;;;;;14.93;10.60;;;;;;;19.40;42.83;95677.44;4954605;29;20462;-68
2022/05/12 04:49:26;;;;;;;90.73;65.37;;;;;;;19.72;42.80;95670.25;4955169;29;20892;-74
2022/05/12 04:51:53;;;;;;;30.67;21.17;;;;;;;19.45;43.17;95680.03;4954570;29;21004;-72
2022/05/12 04:54:24;;;;;;;48.73;40.17;;;;;;;19.80;42.34;95671.41;4955015;29;20458;-73
2022/05/12 04:56:51;;;;;;;18.00;10.20;;;;;;;19.12;43.80;95685.28;4954162;29;20439;-72
2022/05/12 04:59:18;;;;;;;14.87;10.53;;;;;;;19.03;44.56;95691.56;4954601;29;20534;-70
2022/05/12 05:01:44;;;;;;;20.53;10.47;;;;;;;18.55;45.72;95674.97;4953871;29;20451;-71
2022/05/12 05:04:11;;;;;;;17.00;10.57;;;;;;;18.98;44.50;95692.41;4954499;29;20910;-74
2022/05/12 05:06:38;;;;;;;49.17;38.40;;;;;;;18.99;45.37;95680.72;4954410;29;20447;-71
2022/05/12 05:09:06;;;;;;;19.13;13.23;;;;;;;19.25;44.55;95680.34;4954192;29;20467;-69
2022/05/12 05:11:37;;;;;;;20.83;14.13;;;;;;;19.56;43.77;95686.75;4953798;29;20435;-72
2022/05/12 05:14:05;;;;;;;14.23;10.80;;;;;;;19.34;44.54;95686.59;4953351;28;20479;-75
2022/05/12 05:16:32;;;;;;;35.90;25.47;;;;;;;19.56;43.92;95692.06;4956113;29;20451;-72
2022/05/12 05:18:59;;;;;;;21.10;13.50;;;;;;;19.83;43.18;95686.78;4955919;29;20431;-69
2022/05/12 05:21:26;;;;;;;79.87;63.93;;;;;;;19.97;42.01;95669.75;4963088;29;20487;-67
2022/05/12 05:23:55;;;;;;;12.20;9.23;;;;;;;20.06;42.50;95691.16;4951604;29;20837;-71
2022/05/12 05:26:22;;;;;;;16.20;9.03;;;;;;;19.72;43.69;95685.41;4954163;28;20502;-69
2022/05/12 05:28:49;;;;;;;15.37;9.50;;;;;;;19.32;44.09;95692.19;4954098;29;20467;-72
2022/05/12 05:31:16;;;;;;;15.13;9.23;;;;;;;18.90;46.49;95679.78;4953262;29;20510;-72
2022/05/12 05:33:43;;;;;;;12.20;9.37;;;;;;;19.90;43.48;95687.19;4953283;28;20653;-69
2022/05/12 05:36:10;;;;;;;15.73;10.63;;;;;;;19.52;43.81;95681.22;4952948;29;21017;-70
2022/05/12 05:38:38;;;;;;;19.23;10.40;;;;;;;19.83;44.19;95686.78;4950326;29;20443;-69
2022/05/12 05:41:05;;;;;;;15.57;9.63;;;;;;;19.59;44.45;95691.47;4950015;29;20495;-68
2022/05/12 05:43:31;;;;;;;15.07;10.17;;;;;;;19.45;45.44;95695.97;4951427;28;20448;-69
2022/05/12 05:45:58;;;;;;;14.53;9.47;;;;;;;19.62;44.59;95685.56;4952274;29;20547;-68
2022/05/12 05:48:25;;;;;;;23.53;10.80;;;;;;;19.82;44.13;95690.53;4953027;29;20455;-69
2022/05/12 05:53:39;;;;;;;16.10;10.50;;;;;;;19.89;44.09;95672.34;4952964;29;20447;-67
2022/05/12 05:56:14;;;;;;;14.77;10.47;;;;;;;21.08;41.35;95684.22;4952843;29;20821;-68
2022/05/12 05:58:45;;;;;;;15.60;11.47;;;;;;;20.67;41.52;95680.88;4953225;29;20447;-69
2022/05/12 06:01:13;;;;;;;17.00;11.07;;;;;;;20.82;41.64;95675.19;4952328;29;20491;-69
2022/05/12 06:03:40;;;;;;;15.07;11.20;;;;;;;20.48;42.92;95682.88;4945900;29;20477;-68
2022/05/12 06:06:07;;;;;;;14.83;11.30;;;;;;;20.86;42.57;95673.53;4952267;28;20440;-68
2022/05/12 06:08:34;;;;;;;18.13;12.03;;;;;;;21.25;40.34;95678.25;4952687;29;20439;-71
2022/05/12 06:11:04;;;;;;;15.13;11.17;;;;;;;21.21;41.25;95679.94;4952534;29;20452;-70
2022/05/12 06:13:33;;;;;;;17.33;11.30;;;;;;;21.53;41.43;95677.00;4952967;29;20985;-69
2022/05/12 06:16:02;;;;;;;17.07;11.63;;;;;;;20.90;42.54;95679.81;4952336;29;20482;-69
2022/05/12 06:18:29;;;;;;;15.80;11.40;;;;;;;20.79;42.22;95681.13;4952841;29;20522;-70
2022/05/12 06:20:56;;;;;;;19.30;11.97;;;;;;;21.13;41.93;95678.78;4952393;29;20518;-69
2022/05/12 06:23:22;;;;;;;15.20;11.07;;;;;;;21.88;41.04;95672.66;4952371;29;21045;-71
2022/05/12 06:25:50;;;;;;;19.10;11.70;;;;;;;22.01;40.14;95672.56;4952276;29;20448;-69
2022/05/12 06:28:17;;;;;;;19.47;12.90;;;;;;;21.67;40.71;95671.59;4952199;29;20883;-69
2022/05/12 06:30:45;;;;;;;19.80;12.53;;;;;;;21.38;40.66;95674.72;4951675;29;20432;-69
2022/05/12 06:33:17;;;;;;;18.27;11.30;;;;;;;21.76;39.81;95675.09;4952449;29;20539;-69
2022/05/12 06:35:45;;;;;;;17.80;12.03;;;;;;;21.64;40.67;95672.22;4951963;29;20451;-68
2022/05/12 06:38:11;;;;;;;18.87;12.10;;;;;;;21.68;39.86;95675.81;4952299;29;21036;-69
2022/05/12 06:40:39;;;;;;;16.47;12.37;;;;;;;21.44;41.74;95672.72;4951477;29;20872;-70
2022/05/12 06:43:08;;;;;;;18.10;13.47;;;;;;;20.97;41.94;95682.06;4952241;29;20506;-69
2022/05/12 06:45:36;;;;;;;17.87;12.70;;;;;;;22.01;40.64;95682.47;4951523;29;20518;-69
2022/05/12 06:48:03;;;;;;;19.13;13.37;;;;;;;22.39;39.82;95672.84;4952334;29;20431;-69
2022/05/12 06:50:31;;;;;;;29.27;12.97;;;;;;;22.71;39.08;95669.81;4951969;29;20475;-69
2022/05/12 06:52:59;;;;;;;28.73;14.70;;;;;;;22.19;41.04;95673.41;4957135;29;20451;-71
2022/05/12 06:55:29;;;;;;;24.60;13.00;;;;;;;22.62;39.74;95671.69;4955758;28;20455;-69
2022/05/12 06:57:56;;;;;;;20.83;13.93;;;;;;;22.28;39.89;95666.22;4952221;29;20901;-70
2022/05/12 07:00:24;;;;;;;24.63;13.83;;;;;;;22.45;39.43;95665.47;4951447;29;20479;-71
2022/05/12 07:02:52;;;;;;;19.80;13.60;;;;;;;22.84;38.35;95676.13;4952091;29;20722;-70
2022/05/12 07:05:22;;;;;;;16.90;13.87;;;;;;;22.50;38.41;95662.69;4951677;29;20447;-70
2022/05/12 07:07:50;;;;;;;22.57;14.33;;;;;;;23.10;38.22;95660.88;4952204;29;20448;-69
2022/05/12 07:10:20;;;;;;;21.63;14.80;;;;;;;22.87;37.66;95662.13;4951308;29;20448;-71
2022/05/12 07:12:47;;;;;;;20.03;13.37;;;;;;;23.14;37.38;95662.59;4952076;29;20206;-71
2022/05/12 07:15:14;;;;;;;19.80;14.57;;;;;;;23.44;37.92;95673.44;4951301;29;20487;-69
2022/05/12 07:17:43;;;;;;;19.03;14.80;;;;;;;23.52;37.36;95667.31;4952702;29;20671;-70
2022/05/12 07:28:34;;;;;;;21.70;13.27;;;;;;;23.52;38.15;95652.00;4951488;29;20210;-70
2022/05/12 07:31:02;;;;;;;22.83;14.53;;;;;;;24.03;37.28;95653.78;4951129;29;20196;-68
2022/05/12 07:33:43;;;;;;;26.30;16.83;;;;;;;23.93;37.64;95649.53;4951631;29;20187;-70
2022/05/12 07:36:12;;;;;;;16.70;13.87;;;;;;;24.21;36.80;95641.91;4951191;29;20262;-68
2022/05/12 07:38:40;;;;;;;18.47;12.63;;;;;;;24.22;36.18;95632.75;4951572;29;20805;-68
2022/05/12 07:41:09;;;;;;;16.10;11.53;;;;;;;24.46;35.15;95632.91;4951063;29;20227;-69
2022/05/12 07:43:37;;;;;;;17.17;11.97;;;;;;;23.93;36.21;95646.06;4951296;29;20199;-69
2022/05/12 07:46:03;;;;;;;20.47;11.67;;;;;;;24.05;35.90;95638.16;4950860;29;20566;-69
2022/05/12 07:48:30;;;;;;;18.73;11.70;;;;;;;23.83;36.90;95646.44;4951587;29;20184;-69
2022/05/12 07:50:57;;;;;;;17.77;11.60;;;;;;;24.61;34.67;95640.41;4945530;29;20215;-68
2022/05/12 07:53:25;;;;;;;22.97;10.73;;;;;;;24.66;34.89;95632.16;4951304;28;20235;-69
2022/05/12 07:55:52;;;;;;;16.53;11.80;;;;;;;24.64;33.99;95612.94;4950724;29;20264;-70
2022/05/12 07:58:19;;;;;;;17.03;11.73;;;;;;;24.52;34.42;95637.00;4951550;29;20270;-69
2022/05/12 08:00:46;;;;;;;21.87;11.30;;;;;;;24.61;36.16;95632.34;4950930;29;20242;-69
2022/05/12 08:03:13;;;;;;;22.63;11.83;;;;;;;24.33;37.05;95612.50;4951053;29;20196;-70
2022/05/12 08:05:40;;;;;;;18.07;12.43;;;;;;;25.05;35.92;95628.25;4950800;28;20203;-71
2022/05/12 08:08:08;;;;;;;18.30;12.13;;;;;;;25.33;35.33;95623.13;4955063;29;20208;-68
2022/05/12 08:10:35;;;;;;;27.70;13.07;;;;;;;24.59;36.11;95621.19;4954595;29;20242;-68
2022/05/12 08:13:02;;;;;;;19.70;12.93;;;;;;;24.70;35.94;95630.44;4954867;29;20191;-69
2022/05/12 08:15:29;;;;;;;15.60;11.97;;;;;;;24.78;34.46;95628.81;4954382;29;20267;-70
2022/05/12 08:17:57;;;;;;;19.37;12.13;;;;;;;25.32;34.43;95630.38;4954923;29;20753;-71
2022/05/12 08:20:25;;;;;;;21.67;12.27;;;;;;;25.38;35.23;95625.63;4953851;29;20282;-70
2022/05/12 08:22:51;;;;;;;20.73;10.87;;;;;;;26.06;34.56;95611.44;4955178;29;20200;-69
2022/05/12 08:25:19;;;;;;;15.97;11.80;;;;;;;25.84;34.89;95611.81;4954119;29;20247;-69
2022/05/12 08:27:47;;;;;;;19.27;11.27;;;;;;;26.20;34.15;95619.94;4947997;29;20196;-69
2022/05/12 08:30:17;;;;;;;16.77;12.30;;;;;;;26.26;34.28;95601.69;4952796;29;20270;-68
2022/05/12 08:32:45;;;;;;;15.33;11.23;;;;;;;26.23;34.13;95621.97;4954708;29;20220;-69
2022/05/12 08:35:13;;;;;;;18.77;11.43;;;;;;;25.53;34.62;95616.94;4953918;29;20250;-68
2022/05/12 08:37:40;;;;;;;19.30;12.00;;;;;;;26.03;32.52;95609.38;4954347;29;20200;-70
2022/05/12 08:40:16;;;;;;;17.60;11.67;;;;;;;26.17;32.34;95623.28;4953927;29;20632;-69
2022/05/12 08:42:46;;;;;;;19.87;12.00;;;;;;;25.77;34.09;95603.53;4954208;29;20204;-68
2022/05/12 08:45:17;;;;;;;20.47;11.33;;;;;;;26.48;31.33;95611.97;4954248;29;20319;-70
2022/05/12 08:47:49;;;;;;;15.37;10.37;;;;;;;25.95;32.44;95608.38;4954400;29;20215;-70
2022/05/12 08:50:26;;;;;;;15.57;9.23;;;;;;;26.25;31.41;95606.28;4951209;29;20291;-69
2022/05/12 08:53:03;;;;;;;14.50;9.73;;;;;;;26.43;31.10;95606.81;4954128;29;20204;-68
2022/05/12 08:55:33;;;;;;;14.77;9.00;;;;;;;26.78;31.02;95606.00;4953842;29;20238;-69
2022/05/12 08:58:06;;;;;;;12.13;9.20;;;;;;;26.34;30.35;95598.88;4954199;29;20196;-69
2022/05/12 09:00:40;;;;;;;11.00;9.40;;;;;;;26.70;30.62;95603.44;4953665;29;20223;-70
2022/05/12 09:03:08;;;;;;;12.13;8.83;;;;;;;27.00;29.83;95602.81;4954630;29;20340;-69
2022/05/12 09:05:42;;;;;;;14.17;8.50;;;;;;;26.85;29.31;95608.91;4955271;29;20598;-68
2022/05/12 09:08:38;;;;;;;10.63;6.67;;;;;;;26.84;28.97;95601.19;4955475;29;20203;-68
2022/05/12 09:11:30;;;;;;;13.43;6.60;;;;;;;26.68;30.28;95595.72;4934966;28;20211;-71
2022/05/12 09:13:59;;;;;;;11.00;6.00;;;;;;;26.81;28.32;95597.25;4944027;29;20207;-68
2022/05/12 09:16:30;;;;;;;9.97;6.47;;;;;;;26.85;28.79;95603.50;4953267;29;20226;-69
2022/05/12 09:18:58;;;;;;;10.40;5.47;;;;;;;27.55;28.64;95588.53;4953406;28;20207;-69
2022/05/12 09:21:35;;;;;;;9.33;5.53;;;;;;;27.69;28.09;95593.50;4953342;29;20249;-70
2022/05/12 09:24:04;;;;;;;9.27;5.30;;;;;;;27.10;28.35;95588.06;4953512;29;20203;-69
2022/05/12 09:26:48;;;;;;;8.73;5.50;;;;;;;27.61;28.39;95587.13;4953231;29;20204;-69
2022/05/12 09:29:23;;;;;;;6.67;5.37;;;;;;;28.34;28.82;95589.31;4953710;29;20184;-69
2022/05/12 09:31:56;;;;;;;12.17;5.10;;;;;;;28.76;26.13;95588.34;4953061;29;20203;-70
2022/05/12 09:34:26;;;;;;;13.27;5.30;;;;;;;27.84;26.87;95595.41;4953696;29;20231;-70
2022/05/12 09:36:53;;;;;;;7.63;5.10;;;;;;;27.66;26.95;95594.97;4953084;29;20211;-69
2022/05/12 09:39:35;;;;;;;10.87;5.57;;;;;;;27.85;27.25;95583.50;4950985;29;20208;-70
2022/05/12 09:42:06;;;;;;;6.77;4.80;;;;;;;27.82;27.62;95576.13;4948394;29;20223;-69
2022/05/12 09:44:34;;;;;;;9.67;5.07;;;;;;;28.09;26.28;95586.03;4953305;29;20199;-69
2022/05/12 09:47:13;;;;;;;7.50;5.07;;;;;;;27.72;25.73;95576.63;4952587;29;20883;-71
2022/05/12 09:49:42;;;;;;;8.00;5.17;;;;;;;27.81;26.91;95579.94;4946938;29;20222;-70
2022/05/12 09:52:27;;;;;;;7.10;4.40;;;;;;;28.14;25.85;95572.28;4953642;29;20574;-70
2022/05/12 09:55:24;;;;;;;8.57;5.00;;;;;;;28.17;25.45;95581.59;4954905;29;20275;-69
2022/05/12 09:57:52;;;;;;;8.67;5.07;;;;;;;28.42;26.25;95572.94;4947153;29;20263;-68
2022/05/12 10:00:24;;;;;;;7.83;5.17;;;;;;;28.36;25.15;95571.66;4954100;29;20213;-68
2022/05/12 10:09:28;;;;;;;8.00;4.40;;;;;;;27.76;25.20;95561.34;4955069;29;20258;-70
2022/05/12 10:12:22;;;;;;;7.37;4.40;;;;;;;28.59;24.54;95551.00;4954736;29;20200;-68
2022/05/12 10:14:49;;;;;;;7.70;4.30;;;;;;;28.75;23.36;95549.03;4958288;29;20608;-69
2022/05/12 10:17:34;;;;;;;5.77;4.30;;;;;;;28.70;23.51;95546.59;4952904;29;20267;-68
2022/05/12 10:20:08;;;;;;;6.37;3.80;;;;;;;28.32;22.40;95546.53;4951978;29;20263;-68
2022/05/12 10:22:53;;;;;;;5.77;3.70;;;;;;;28.75;22.82;95549.03;4952313;29;20239;-69
2022/05/12 10:25:47;;;;;;;15.13;3.40;;;;;;;28.77;20.96;95535.97;4952137;29;20203;-70
2022/05/12 10:28:32;;;;;;;5.00;3.77;;;;;;;29.32;21.28;95525.84;4952507;29;20303;-70
2022/05/12 10:31:23;;;;;;;4.70;3.50;;;;;;;29.49;22.33;95528.09;4951496;29;20212;-68
2022/05/12 10:33:59;;;;;;;5.87;4.10;;;;;;;29.65;23.32;95528.75;4953935;29;20196;-69
2022/05/12 10:36:42;;;;;;;11.03;4.83;;;;;;;30.04;22.88;95522.03;4952583;29;20670;-70
2022/05/12 10:39:42;;;;;;;5.77;4.07;;;;;;;29.64;22.23;95525.25;4952062;29;20284;-68
2022/05/12 10:42:38;;;;;;;3.87;3.53;;;;;;;30.14;21.13;95521.44;4951794;29;20231;-69
2022/05/12 10:45:33;;;;;;;11.13;3.87;;;;;;;30.40;19.88;95515.25;4951507;29;20223;-70
2022/05/12 10:48:15;;;;;;;4.47;3.20;;;;;;;29.55;20.10;95510.41;4951844;29;20202;-68
2022/05/12 10:50:57;;;;;;;8.97;3.40;;;;;;;30.43;20.85;95504.47;4951433;29;20203;-70
2022/05/12 10:53:45;;;;;;;3.90;3.20;;;;;;;30.11;19.71;95495.09;4951845;29;20693;-69
2022/05/12 10:56:44;;;;;;;5.63;2.97;;;;;;;29.54;19.38;95492.66;4951329;29;20203;-69
2022/05/12 10:59:41;;;;;;;4.33;3.13;;;;;;;30.22;19.40;95497.97;4933485;28;20211;-71
2022/05/12 11:02:17;;;;;;;6.23;3.10;;;;;;;30.56;18.32;95494.22;4951280;29;20793;-70
2022/05/12 11:05:07;;;;;;;3.87;2.80;;;;;;;30.63;18.39;95495.06;4952114;29;20203;-70
2022/05/12 11:07:52;;;;;;;8.53;3.03;;;;;;;29.92;17.88;95487.13;4939014;29;20211;-68
2022/05/12 11:10:41;;;;;;;7.90;3.20;;;;;;;30.27;19.75;95484.97;4951357;29;20184;-69
2022/05/12 11:13:41;;;;;;;5.10;2.93;;;;;;;30.50;19.59;95485.63;4951643;29;20235;-70
2022/05/12 11:16:15;;;;;;;3.87;3.00;;;;;;;30.36;18.84;95493.56;4913950;29;20216;-70
2022/05/12 11:18:49;;;;;;;3.23;2.83;;;;;;;30.74;18.31;95477.03;4932741;29;20713;-68
2022/05/12 11:21:41;;;;;;;7.47;3.40;;;;;;;30.37;20.10;95487.00;4931952;29;20688;-71
2022/05/12 11:24:12;;;;;;;5.23;3.13;;;;;;;30.97;19.19;95471.50;4932768;29;20235;-68
2022/05/12 11:26:45;;;;;;;5.23;2.80;;;;;;;31.43;19.64;95472.75;4930733;29;20598;-69
2022/05/12 11:32:02;;;;;;;11.50;3.80;;;;;;;30.89;20.83;95467.94;4932199;29;20330;-69
2022/05/12 11:34:29;;;;;;;6.30;3.53;;;;;;;31.08;20.78;95466.19;4932402;29;20552;-69
2022/05/12 11:37:18;;;;;;;6.57;5.53;;;;;;;30.85;20.10;95459.03;4931879;29;20243;-70
2022/05/12 11:39:56;;;;;;;16.07;10.70;;;;;;;31.25;20.18;95455.53;4932158;29;20637;-69
2022/05/12 11:42:28;;;;;;;6.50;4.63;;;;;;;31.09;20.25;95446.09;4932005;29;20236;-69
2022/05/12 11:45:03;;;;;;;7.03;3.53;;;;;;;30.75;19.04;95438.00;4930871;29;20207;-69
2022/05/12 11:48:13;;;;;;;6.77;3.13;;;;;;;31.18;18.94;95433.81;4931898;29;20311;-69
2022/05/12 11:50:56;;;;;;;4.67;4.00;;;;;;;31.73;19.13;95431.97;4931612;29;20216;-70
2022/05/12 11:53:27;;;;;;;4.80;3.27;;;;;;;31.67;19.00;95407.16;4931883;29;20579;-69
2022/05/12 11:56:03;;;;;;;4.90;3.03;;;;;;;31.79;20.30;95425.81;4931937;29;20248;-69
2022/05/12 11:58:34;;;;;;;8.30;3.47;;;;;;;32.02;19.80;95422.88;4931955;29;20211;-69
2022/05/12 12:01:04;;;;;;;6.00;3.70;;;;;;;31.80;20.57;95407.63;4914655;29;20208;-67
2022/05/12 12:03:31;;;;;;;6.93;3.53;;;;;;;31.60;20.65;95422.59;4931773;29;20304;-69
2022/05/12 12:06:07;;;;;;;6.87;3.10;;;;;;;31.28;19.43;95421.50;4931156;29;20681;-67